Weather History for KOVL - April, 2013

Change the Weather History Date:

Thursday, April 4, 2013

  Actual Average Record
Temperature  
Mean Temperature 39 °F -  
Max Temperature 46 °F - - ()
Min Temperature 32 °F - - ()
Degree Days  
Heating Degree Days 26    
Moisture  
Dew Point 31 °F    
Average Humidity 75    
Maximum Humidity 93    
Minimum Humidity 57    
Precipitation  
Precipitation 0.00 in - - ()
Sea Level Pressure  
Sea Level Pressure 30.10 in    
Wind  
Wind Speed 13 mph (NW)    
Max Wind Speed 18 mph    
Max Gust Speed 25 mph    
Visibility 10 miles    
Events      
T = Trace of Precipitation, MM = Missing Value Source: NWS Daily Summary

Daily Weather History Graph

Daily Weather History Graph

Search for Another Location

Airport or City:

Trip Planner

Search our weather history database for the weather conditions in past years. The results will help you decide how hot, cold, wet, or windy it might be!

Date:

Astronomy

Apr. 04, 2013 Rise Set
Actual Time 6:54 AM CDT 7:51 PM CDT
Civil Twilight 6:25 AM CDT 8:21 PM CDT
Nautical Twilight 5:49 AM CDT 8:57 PM CDT
Astronomical Twilight 5:12 AM CDT 9:34 PM CDT
Moon 3:36 AM CDT (4/4) 1:57 PM CDT (4/4)
Length of Visible Light 13h 56m
Length of Day
12h 56m
Waning Crescent, 33% of the Moon is Illuminated
Apr 4
Waning Crescent
Apr 10
New
Apr 18
First Quarter
Apr 25
Full
May 2
Last Quarter

Hourly Weather History & Observations

Time (CDT) Temp. Windchill Dew Point Humidity Pressure Visibility Wind Dir Wind Speed Gust Speed Precip Events Conditions
12:11 AM 42.8 °F 34.8 °F 32.0 °F 66% 30.00 in 10.0 mi South 17.3 mph 25.3 mph N/A   Clear
12:31 AM 42.8 °F 35.4 °F 32.0 °F 66% 30.00 in 10.0 mi South 15.0 mph 20.7 mph N/A   Clear
12:51 AM 42.8 °F 34.8 °F 32.0 °F 66% 30.00 in 10.0 mi SSW 17.3 mph 21.9 mph N/A   Clear
1:10 AM 42.8 °F 35.4 °F 32.0 °F 66% 30.01 in 10.0 mi SW 15.0 mph 19.6 mph N/A   Clear
1:31 AM 42.8 °F 37.5 °F 32.0 °F 66% 30.04 in 10.0 mi WNW 9.2 mph - N/A   Clear
1:51 AM 41.0 °F 35.8 °F 32.0 °F 70% 30.05 in 10.0 mi NW 8.1 mph - N/A   Clear
2:10 AM 41.0 °F 35.2 °F 32.0 °F 70% 30.04 in 10.0 mi West 9.2 mph - N/A   Clear
2:31 AM 42.8 °F 37.0 °F 32.0 °F 66% 30.03 in 10.0 mi WSW 10.4 mph - N/A   Clear
2:50 AM 42.8 °F 36.6 °F 32.0 °F 66% 30.02 in 10.0 mi SW 11.5 mph - N/A   Clear
3:11 AM 41.0 °F 34.7 °F 32.0 °F 70% 30.02 in 10.0 mi SW 10.4 mph - N/A   Clear
3:31 AM 39.2 °F 32.5 °F 32.0 °F 75% 30.01 in 10.0 mi SW 10.4 mph - N/A   Clear
3:50 AM 39.2 °F 33.6 °F 32.0 °F 75% 30.02 in 10.0 mi WNW 8.1 mph - N/A   Clear
4:11 AM 37.4 °F 31.4 °F 32.0 °F 81% 30.02 in 10.0 mi WNW 8.1 mph - N/A   Clear
4:30 AM 35.6 °F 28.6 °F 32.0 °F 87% 30.02 in 10.0 mi WNW 9.2 mph - N/A   Clear
4:50 AM 35.6 °F 28.6 °F 32.0 °F 87% 30.02 in 10.0 mi WNW 9.2 mph - N/A   Clear
5:11 AM 35.6 °F 28.0 °F 32.0 °F 87% 30.03 in 10.0 mi WNW 10.4 mph - N/A   Clear
5:30 AM 35.6 °F 28.6 °F 32.0 °F 87% 30.04 in 10.0 mi WNW 9.2 mph - N/A   Clear
5:50 AM 33.8 °F 27.0 °F 32.0 °F 93% 30.04 in 10.0 mi WNW 8.1 mph - N/A   Clear
6:11 AM 33.8 °F 25.8 °F 32.0 °F 93% 30.04 in 10.0 mi NW 10.4 mph - N/A   Clear
6:31 AM 33.8 °F 26.4 °F 30.2 °F 87% 30.05 in 10.0 mi NW 9.2 mph - N/A   Clear
6:50 AM 33.8 °F 25.3 °F 30.2 °F 87% 30.06 in 10.0 mi NW 11.5 mph - N/A   Clear
7:11 AM 33.8 °F 25.8 °F 30.2 °F 87% 30.06 in 10.0 mi NW 10.4 mph - N/A   Clear
7:31 AM 33.8 °F 25.8 °F 30.2 °F 87% 30.06 in 10.0 mi NW 10.4 mph - N/A   Clear
7:51 AM 33.8 °F 25.8 °F 30.2 °F 87% 30.08 in 10.0 mi NW 10.4 mph - N/A   Clear
8:10 AM 33.8 °F 24.3 °F 30.2 °F 87% 30.08 in 10.0 mi NW 13.8 mph - N/A   Clear
8:31 AM 33.8 °F 24.8 °F 30.2 °F 87% 30.09 in 10.0 mi NW 12.7 mph - N/A   Clear
8:51 AM 35.6 °F 26.6 °F 32.0 °F 87% 30.09 in 10.0 mi NW 13.8 mph 19.6 mph N/A   Clear
9:11 AM 35.6 °F 26.2 °F 32.0 °F 87% 30.10 in 10.0 mi NW 15.0 mph - N/A   Clear
9:30 AM 35.6 °F 26.6 °F 32.0 °F 87% 30.11 in 10.0 mi NW 13.8 mph 18.4 mph N/A   Clear
9:51 AM 37.4 °F 29.3 °F 32.0 °F 81% 30.11 in 10.0 mi NW 12.7 mph - N/A   Clear
10:11 AM 39.2 °F 31.2 °F 32.0 °F 75% 30.11 in 10.0 mi NW 13.8 mph 18.4 mph N/A   Clear
10:30 AM 39.2 °F 32.0 °F 32.0 °F 75% 30.11 in 10.0 mi WNW 11.5 mph 19.6 mph N/A   Clear
10:51 AM 39.2 °F 31.6 °F 32.0 °F 75% 30.11 in 10.0 mi NW 12.7 mph 18.4 mph N/A   Clear
11:31 AM 42.8 °F 36.6 °F 32.0 °F 66% 30.12 in 10.0 mi NW 11.5 mph 23.0 mph N/A   Clear
11:51 AM 42.8 °F 35.4 °F 32.0 °F 66% 30.12 in 10.0 mi NNW 15.0 mph - N/A   Clear
12:10 PM 42.8 °F 35.4 °F 33.8 °F 70% 30.13 in 10.0 mi NNW 15.0 mph 23.0 mph N/A   Clear
12:31 PM 42.8 °F 35.8 °F 33.8 °F 70% 30.12 in 10.0 mi NNW 13.8 mph 18.4 mph N/A   Scattered Clouds
12:51 PM 44.6 °F 37.8 °F 33.8 °F 66% 30.13 in 10.0 mi NNW 15.0 mph 23.0 mph N/A   Scattered Clouds
1:11 PM 44.6 °F 38.1 °F 33.8 °F 66% 30.13 in 10.0 mi North 13.8 mph - N/A   Clear
1:30 PM 46.4 °F 39.5 °F 33.8 °F 62% 30.13 in 10.0 mi NNW 17.3 mph 21.9 mph N/A   Clear
1:50 PM 46.4 °F 40.4 °F 33.8 °F 62% 30.13 in 10.0 mi NNW 13.8 mph 23.0 mph N/A   Clear
2:11 PM 46.4 °F 40.4 °F 33.8 °F 62% 30.13 in 10.0 mi NNW 13.8 mph 21.9 mph N/A   Clear
2:31 PM 46.4 °F 40.1 °F 32.0 °F 57% 30.13 in 10.0 mi NNW 15.0 mph 23.0 mph N/A   Clear
2:50 PM 46.4 °F 40.4 °F 33.8 °F 62% 30.12 in 10.0 mi NW 13.8 mph 18.4 mph N/A   Scattered Clouds
3:11 PM 46.4 °F 39.2 °F 32.0 °F 57% 30.12 in 10.0 mi NNW 18.4 mph 25.3 mph N/A   Clear
3:31 PM 46.4 °F 39.2 °F 32.0 °F 57% 30.12 in 10.0 mi NNW 18.4 mph 24.2 mph N/A   Clear
3:50 PM 44.6 °F 37.2 °F 30.2 °F 57% 30.13 in 10.0 mi NNW 17.3 mph 24.2 mph N/A   Clear
4:11 PM 44.6 °F 38.1 °F 30.2 °F 57% 30.13 in 10.0 mi NNW 13.8 mph 17.3 mph N/A   Clear
4:30 PM 44.6 °F 37.2 °F 30.2 °F 57% 30.13 in 10.0 mi North 17.3 mph - N/A   Scattered Clouds
4:51 PM 42.8 °F 36.2 °F 28.4 °F 57% 30.13 in 10.0 mi NNW 12.7 mph 18.4 mph N/A   Scattered Clouds
5:10 PM 42.8 °F 36.6 °F 28.4 °F 57% 30.13 in 10.0 mi North 11.5 mph - N/A   Clear
5:30 PM 42.8 °F 36.6 °F 30.2 °F 61% 30.14 in 10.0 mi North 11.5 mph 18.4 mph N/A   Clear
5:51 PM 41.0 °F 34.3 °F 30.2 °F 65% 30.14 in 10.0 mi North 11.5 mph - N/A   Clear
6:10 PM 42.8 °F 35.8 °F 30.2 °F 61% 30.14 in 10.0 mi NNW 13.8 mph - N/A   Clear
6:31 PM 39.2 °F 30.2 °F 30.2 °F 70% 30.14 in 10.0 mi NW 17.3 mph 20.7 mph N/A   Clear
6:51 PM 39.2 °F 31.2 °F 28.4 °F 65% 30.15 in 10.0 mi NW 13.8 mph - N/A   Clear
7:10 PM 39.2 °F 31.2 °F 28.4 °F 65% 30.15 in 10.0 mi NNW 13.8 mph - N/A   Clear
7:31 PM 35.6 °F 27.1 °F 26.6 °F 70% 30.15 in 10.0 mi NNW 12.7 mph - N/A   Clear
7:50 PM 35.6 °F 28.0 °F 30.2 °F 81% 30.15 in 10.0 mi NW 10.4 mph - N/A   Clear
8:11 PM 33.8 °F 25.8 °F 30.2 °F 87% 30.16 in 10.0 mi NW 10.4 mph - N/A   Clear
8:30 PM 33.8 °F 24.8 °F 30.2 °F 87% 30.16 in 10.0 mi NW 12.7 mph - N/A   Clear
8:51 PM 32.0 °F 22.5 °F 28.4 °F 87% 30.17 in 10.0 mi NNW 12.7 mph - N/A   Clear
9:11 PM 32.0 °F 23.0 °F 28.4 °F 87% 30.17 in 10.0 mi NNW 11.5 mph - N/A   Clear
9:31 PM 32.0 °F 24.2 °F 28.4 °F 87% 30.18 in 10.0 mi NW 9.2 mph - N/A   Clear
9:51 PM 32.0 °F 23.6 °F 28.4 °F 87% 30.18 in 10.0 mi NW 10.4 mph - N/A   Clear
10:10 PM 32.0 °F 23.6 °F 28.4 °F 87% 30.18 in 10.0 mi NW 10.4 mph - N/A   Clear
10:30 PM 32.0 °F 24.2 °F 28.4 °F 87% 30.18 in 10.0 mi NW 9.2 mph - N/A   Clear
10:50 PM 32.0 °F 24.2 °F 28.4 °F 87% 30.19 in 10.0 mi NNW 9.2 mph - N/A   Clear
11:11 PM 32.0 °F 24.2 °F 28.4 °F 87% 30.20 in 10.0 mi NW 9.2 mph - N/A   Clear
11:31 PM 32.0 °F 24.8 °F 28.4 °F 87% 30.19 in 10.0 mi NNW 8.1 mph - N/A   Clear
11:51 PM 32.0 °F 23.6 °F 28.4 °F 87% 30.19 in 10.0 mi NNW 10.4 mph - N/A   Clear